Time;durP1;ratioP1;P1;durP2;ratioP2;P2;SDS_P1;SDS_P2;PMS_P1;PMS_P2;Temp;Humidity;BMP_temperature;BMP_pressure;BME280_temperature;BME280_humidity;BME280_pressure;Samples;Min_cycle;Max_cycle;Signal;HPM_P1;HPM_P2
2022/08/27 00:02:00;;;;;;;5.35;3.03;;;;;;;15.77;88.09;101666.81;5049881;28;20100;-80
2022/08/27 00:04:26;;;;;;;7.43;3.00;;;;;;;15.76;88.41;101665.13;5050429;28;20120;-79
2022/08/27 00:06:55;;;;;;;7.07;3.00;;;;;;;15.64;88.85;101667.81;5049973;28;20028;-80
2022/08/27 00:09:20;;;;;;;6.55;2.92;;;;;;;15.66;89.36;101660.59;5048982;28;20036;-80
2022/08/27 00:11:46;;;;;;;5.82;2.95;;;;;;;15.61;89.47;101656.63;5049235;28;20029;-80
2022/08/27 00:14:13;;;;;;;7.28;2.90;;;;;;;15.63;90.03;101663.50;5035939;28;20535;-79
2022/08/27 00:16:38;;;;;;;7.65;3.03;;;;;;;15.54;90.48;101661.53;5029127;28;20079;-80
2022/08/27 00:19:04;;;;;;;6.15;3.22;;;;;;;15.53;90.33;101659.00;5072747;28;20033;-80
2022/08/27 00:21:31;;;;;;;10.32;3.47;;;;;;;15.54;90.14;101664.19;5048006;28;20432;-77
2022/08/27 00:23:57;;;;;;;8.50;3.58;;;;;;;15.48;90.41;101655.91;5047102;28;20035;-79
2022/08/27 00:26:23;;;;;;;5.95;3.08;;;;;;;15.34;90.89;101655.22;5048609;28;20025;-80
2022/08/27 00:28:49;;;;;;;9.35;3.30;;;;;;;15.32;91.27;101656.31;5047189;28;20021;-80
2022/08/27 00:31:14;;;;;;;10.48;3.45;;;;;;;15.30;91.47;101653.78;5048193;28;20526;-79
2022/08/27 00:33:40;;;;;;;6.60;3.28;;;;;;;15.29;91.49;101653.91;5046651;28;20394;-80
2022/08/27 00:36:07;;;;;;;7.85;3.30;;;;;;;15.27;91.68;101658.50;5080686;28;20491;-77
2022/08/27 00:38:33;;;;;;;5.88;2.65;;;;;;;15.15;91.79;101648.84;5048235;28;20046;-80
2022/08/27 00:41:00;;;;;;;8.43;3.50;;;;;;;15.20;92.34;101654.63;5046556;28;20028;-78
2022/08/27 00:43:30;;;;;;;7.70;4.00;;;;;;;15.11;92.16;101648.25;5048547;28;20037;-78
2022/08/27 00:46:03;;;;;;;6.05;3.65;;;;;;;15.10;91.96;101651.88;5034935;28;20043;-78
2022/08/27 00:48:34;;;;;;;7.10;3.60;;;;;;;15.07;92.00;101652.13;5033677;28;20036;-78
2022/08/27 00:51:00;;;;;;;10.38;3.88;;;;;;;15.07;93.12;101657.44;5047889;28;20025;-78
2022/08/27 00:53:32;;;;;;;12.10;4.10;;;;;;;14.95;93.05;101647.81;5048619;28;20025;-78
2022/08/27 00:56:11;;;;;;;6.10;4.00;;;;;;;15.00;92.43;101653.59;5048522;28;20032;-77
2022/08/27 00:58:42;;;;;;;5.80;4.00;;;;;;;14.91;92.29;101649.88;5049250;28;20103;-77
2022/08/27 01:01:10;;;;;;;8.00;4.40;;;;;;;14.79;93.01;101653.47;5049375;28;20021;-77
2022/08/27 01:03:36;;;;;;;9.65;4.70;;;;;;;14.82;93.12;101653.25;5047230;28;20044;-77
2022/08/27 01:06:05;;;;;;;9.02;4.65;;;;;;;14.83;93.24;101649.63;5049141;28;20029;-79
2022/08/27 01:08:35;;;;;;;9.40;4.60;;;;;;;14.70;93.27;101640.94;5049297;28;20032;-80
2022/08/27 01:11:01;;;;;;;11.00;5.28;;;;;;;14.66;92.79;101637.69;5048415;28;20485;-80
2022/08/27 01:13:30;;;;;;;7.63;4.55;;;;;;;14.58;93.13;101649.88;5049346;28;20108;-79
2022/08/27 01:15:59;;;;;;;7.70;4.70;;;;;;;14.58;93.18;101640.13;5048146;28;20494;-77
2022/08/27 01:18:26;;;;;;;8.88;4.88;;;;;;;14.51;93.49;101640.72;5044434;28;20036;-77
2022/08/27 01:21:01;;;;;;;12.80;4.63;;;;;;;14.56;93.90;101641.19;5048334;28;20021;-80
2022/08/27 01:23:32;;;;;;;9.00;4.80;;;;;;;14.48;93.98;101639.16;5027983;28;20087;-77
2022/08/27 01:25:59;;;;;;;9.30;4.78;;;;;;;14.45;93.91;101644.69;5047425;28;20025;-77
2022/08/27 01:28:24;;;;;;;10.57;4.78;;;;;;;14.46;94.19;101634.94;5046719;28;20025;-77
2022/08/27 01:30:50;;;;;;;7.20;4.57;;;;;;;14.46;94.55;101640.22;5046221;28;20570;-77
2022/08/27 01:33:18;;;;;;;9.80;4.80;;;;;;;14.41;94.61;101638.75;5045493;28;20521;-77
2022/08/27 01:35:47;;;;;;;10.10;5.10;;;;;;;14.35;94.53;101636.56;5047102;28;20120;-76
2022/08/27 01:38:14;;;;;;;8.20;4.95;;;;;;;14.40;94.99;101630.91;5046154;28;20033;-76
2022/08/27 01:40:40;;;;;;;11.60;5.15;;;;;;;14.34;94.62;101632.22;5046568;28;20059;-79
2022/08/27 01:43:06;;;;;;;9.52;5.15;;;;;;;14.27;95.01;101644.25;5046955;28;20112;-78
2022/08/27 01:45:37;;;;;;;9.98;5.10;;;;;;;14.27;95.08;101641.59;5047213;28;20517;-79
2022/08/27 01:48:06;;;;;;;8.13;4.82;;;;;;;14.23;95.22;101642.81;5046167;28;20119;-79
2022/08/27 01:50:37;;;;;;;9.60;4.93;;;;;;;14.24;94.83;101636.56;5048112;28;20025;-79
2022/08/27 01:53:17;;;;;;;7.63;5.25;;;;;;;14.19;94.91;101638.72;5047240;28;20456;-80
2022/08/27 01:55:45;;;;;;;8.35;5.00;;;;;;;14.09;95.00;101637.72;5056464;28;20033;-80
2022/08/27 01:58:10;;;;;;;9.68;4.95;;;;;;;14.18;94.92;101644.97;5026534;28;20104;-80
2022/08/27 02:00:39;;;;;;;11.38;5.60;;;;;;;14.11;95.19;101634.00;5028125;28;20101;-79
2022/08/27 02:03:06;;;;;;;8.38;4.97;;;;;;;14.08;95.39;101636.88;5027087;28;20029;-79
2022/08/27 02:05:32;;;;;;;8.25;5.28;;;;;;;14.03;95.69;101632.91;5030704;28;20022;-79
2022/08/27 02:07:58;;;;;;;7.68;5.15;;;;;;;14.07;95.20;101634.34;5079349;28;20536;-79
2022/08/27 02:10:30;;;;;;;9.70;5.93;;;;;;;13.98;95.39;101640.31;5052309;28;20057;-80
2022/08/27 02:12:55;;;;;;;8.25;5.10;;;;;;;13.97;95.49;101628.06;5049485;28;20025;-80
2022/08/27 02:15:23;;;;;;;9.30;5.47;;;;;;;13.91;95.60;101623.22;5052067;28;20083;-79
2022/08/27 02:17:49;;;;;;;8.32;5.25;;;;;;;13.83;95.89;101620.31;5052414;28;20021;-79
2022/08/27 02:20:15;;;;;;;10.77;6.18;;;;;;;13.84;95.77;101625.50;5049997;28;20025;-79
2022/08/27 02:22:41;;;;;;;10.63;6.20;;;;;;;13.84;95.71;101627.31;5050990;28;20059;-79
2022/08/27 02:25:09;;;;;;;9.65;6.15;;;;;;;13.80;96.20;101624.88;5050125;28;20037;-80
2022/08/27 02:27:34;;;;;;;9.82;6.15;;;;;;;13.79;96.22;101615.28;5048328;28;20084;-80
2022/08/27 02:30:00;;;;;;;9.57;6.90;;;;;;;13.76;96.12;101618.16;5049802;28;20033;-80
2022/08/27 02:32:26;;;;;;;9.55;6.75;;;;;;;13.75;96.55;101611.16;5050697;28;20044;-80
2022/08/27 02:34:52;;;;;;;13.82;6.97;;;;;;;13.73;96.42;101614.88;5050103;28;20025;-80
2022/08/27 02:37:18;;;;;;;9.48;7.03;;;;;;;13.75;96.33;101608.53;5050508;28;20017;-80
2022/08/27 02:39:43;;;;;;;9.77;6.57;;;;;;;13.71;95.88;101612.34;5049280;28;20025;-80
2022/08/27 02:42:08;;;;;;;9.80;7.18;;;;;;;13.68;96.77;101611.75;5049624;28;20132;-80
2022/08/27 02:44:34;;;;;;;8.00;6.60;;;;;;;13.70;96.76;101608.03;5050590;28;20059;-80
2022/08/27 02:47:01;;;;;;;11.85;7.15;;;;;;;13.69;97.47;101613.44;5048612;28;20394;-79
2022/08/27 02:49:27;;;;;;;11.18;7.32;;;;;;;13.66;97.17;101621.59;5049522;28;20024;-80
2022/08/27 02:51:55;;;;;;;13.55;7.70;;;;;;;13.71;97.70;101622.94;5082305;28;20386;-79
2022/08/27 02:54:22;;;;;;;12.45;7.38;;;;;;;13.68;97.75;101615.25;5048155;28;20063;-80
2022/08/27 02:56:48;;;;;;;11.65;7.05;;;;;;;13.69;97.70;101608.16;5050188;28;20020;-80
2022/08/27 02:59:13;;;;;;;10.10;7.10;;;;;;;13.73;97.96;101610.44;5049677;28;20423;-79
2022/08/27 03:01:39;;;;;;;9.52;6.97;;;;;;;13.69;98.14;101614.28;5049625;28;20105;-80
2022/08/27 03:04:04;;;;;;;10.13;7.15;;;;;;;13.72;98.78;101614.03;5048224;28;20505;-79
2022/08/27 03:06:30;;;;;;;13.98;7.78;;;;;;;13.74;98.48;101620.06;5042055;28;20053;-79
2022/08/27 03:08:56;;;;;;;12.10;7.43;;;;;;;13.77;98.84;101622.47;5029275;28;20087;-79
2022/08/27 03:11:22;;;;;;;8.88;6.65;;;;;;;13.84;98.91;101617.56;5031987;28;20125;-78
2022/08/27 03:13:47;;;;;;;10.48;6.93;;;;;;;13.85;99.05;101613.13;5050206;28;20111;-78
2022/08/27 03:16:13;;;;;;;9.07;7.00;;;;;;;13.87;98.62;101611.19;5048731;28;20021;-78
2022/08/27 03:18:38;;;;;;;9.77;7.22;;;;;;;13.85;98.88;101613.13;5048171;28;20056;-78
2022/08/27 03:21:04;;;;;;;13.85;7.32;;;;;;;13.92;99.30;101619.63;5048570;28;20083;-78
2022/08/27 03:23:34;;;;;;;9.23;7.47;;;;;;;13.91;99.64;101612.66;5030575;28;20064;-79
2022/08/27 03:26:09;;;;;;;9.40;7.00;;;;;;;13.96;99.56;101615.78;5030733;28;20471;-79
2022/08/27 03:28:35;;;;;;;16.30;7.32;;;;;;;13.95;98.78;101625.53;5031218;28;20033;-79
2022/08/27 03:31:03;;;;;;;15.00;7.72;;;;;;;13.93;98.67;101619.50;5028519;28;20147;-79
2022/08/27 03:33:31;;;;;;;12.68;7.03;;;;;;;13.98;98.46;101620.00;5030834;28;20028;-79
2022/08/27 03:35:57;;;;;;;10.20;7.05;;;;;;;13.98;98.86;101620.00;5041709;28;20028;-80
2022/08/27 03:38:23;;;;;;;10.93;7.13;;;;;;;13.93;98.80;101618.66;5047892;28;20506;-80
2022/08/27 03:40:49;;;;;;;9.00;7.28;;;;;;;13.94;99.33;101617.72;5049373;28;20029;-79
2022/08/27 03:43:15;;;;;;;12.90;7.45;;;;;;;13.90;98.69;101616.25;5048979;28;20487;-79
2022/08/27 03:45:44;;;;;;;12.57;7.05;;;;;;;13.91;98.69;101620.59;5048315;28;20045;-79
2022/08/27 03:48:11;;;;;;;10.05;6.60;;;;;;;13.89;98.41;101630.44;5049741;28;20025;-79
2022/08/27 03:50:42;;;;;;;10.07;7.20;;;;;;;13.92;98.50;101623.13;5047593;28;20064;-79
2022/08/27 03:53:08;;;;;;;13.13;7.07;;;;;;;13.91;98.53;101624.06;5044882;28;20470;-79
2022/08/27 03:55:34;;;;;;;11.43;6.72;;;;;;;13.82;98.17;101623.94;5048597;28;20155;-79
2022/08/27 03:57:59;;;;;;;12.55;6.70;;;;;;;13.84;98.56;101622.84;5047805;28;20029;-79
2022/08/27 04:00:26;;;;;;;12.20;6.95;;;;;;;13.83;98.87;101617.69;5049392;28;20147;-79
2022/08/27 04:02:54;;;;;;;14.93;6.88;;;;;;;13.80;99.33;101616.97;5049272;28;20025;-79
2022/08/27 04:05:21;;;;;;;11.82;6.85;;;;;;;13.78;98.94;101613.59;5048101;28;20063;-79
2022/08/27 04:07:47;;;;;;;12.20;7.25;;;;;;;13.80;99.13;101616.97;5049273;28;20023;-79
2022/08/27 04:10:13;;;;;;;18.58;7.60;;;;;;;13.76;99.44;101620.78;5048104;28;20029;-78
2022/08/27 04:12:39;;;;;;;13.80;7.30;;;;;;;13.80;99.47;101622.25;5045721;28;20040;-79
2022/08/27 04:15:06;;;;;;;13.60;7.50;;;;;;;13.75;99.59;101613.81;5047092;28;20029;-79
2022/08/27 04:17:32;;;;;;;13.38;7.32;;;;;;;13.74;99.26;101613.94;5080654;28;20020;-79
2022/08/27 04:20:00;;;;;;;17.92;7.38;;;;;;;13.76;99.34;101612.84;5047501;28;20427;-79
2022/08/27 04:22:26;;;;;;;14.45;7.15;;;;;;;13.72;99.36;101611.41;5048824;28;20067;-79
2022/08/27 04:24:53;;;;;;;12.68;7.50;;;;;;;13.76;99.86;101612.84;5048879;28;20021;-78
2022/08/27 04:27:20;;;;;;;15.52;7.45;;;;;;;13.72;99.51;101608.75;5046370;28;20493;-79
2022/08/27 04:29:46;;;;;;;13.43;7.80;;;;;;;13.67;99.80;101613.56;5047280;28;20120;-79
2022/08/27 04:32:11;;;;;;;17.42;7.05;;;;;;;13.72;99.50;101624.63;5048309;28;20024;-79
2022/08/27 04:34:37;;;;;;;10.88;6.88;;;;;;;13.66;100.00;101614.50;5049024;28;20116;-79
2022/08/27 04:37:02;;;;;;;16.27;7.72;;;;;;;13.69;100.00;101614.28;5047897;28;20040;-79
2022/08/27 04:39:29;;;;;;;17.15;7.07;;;;;;;13.65;99.88;101615.47;5049609;28;20040;-79
2022/08/27 04:41:58;;;;;;;17.63;8.18;;;;;;;13.61;100.00;101619.31;5049084;28;20435;-79
2022/08/27 04:44:26;;;;;;;15.85;8.20;;;;;;;13.58;100.00;101621.31;5048213;28;20060;-79
2022/08/27 04:46:59;;;;;;;13.73;8.35;;;;;;;13.53;100.00;101628.72;5046862;28;20029;-79
2022/08/27 04:49:26;;;;;;;10.85;7.18;;;;;;;13.55;100.00;101626.81;5049767;28;20110;-79
2022/08/27 04:51:55;;;;;;;13.93;8.00;;;;;;;13.52;100.00;101632.34;5049879;28;20028;-79
2022/08/27 04:54:21;;;;;;;12.23;7.32;;;;;;;13.55;100.00;101632.94;5047598;28;20032;-79
2022/08/27 04:56:47;;;;;;;12.77;7.88;;;;;;;13.53;100.00;101634.03;5048252;28;20025;-79
2022/08/27 04:59:12;;;;;;;11.00;7.70;;;;;;;13.55;100.00;101625.03;5048643;28;20116;-78
2022/08/27 05:01:39;;;;;;;12.65;7.63;;;;;;;13.55;100.00;101627.66;5045894;28;20029;-79
2022/08/27 05:04:05;;;;;;;11.55;8.05;;;;;;;13.60;100.00;101635.25;5045774;28;20024;-79
2022/08/27 05:06:32;;;;;;;10.80;7.28;;;;;;;13.61;100.00;101636.94;5048343;28;20593;-79
2022/08/27 05:08:58;;;;;;;11.90;8.25;;;;;;;13.65;100.00;101638.44;5046869;28;20032;-78
2022/08/27 05:11:28;;;;;;;15.75;8.60;;;;;;;13.69;100.00;101639.88;5048279;28;20029;-78
2022/08/27 05:13:54;;;;;;;15.32;8.60;;;;;;;13.69;100.00;101632.78;5046349;28;20486;-79
2022/08/27 05:16:21;;;;;;;12.57;8.68;;;;;;;13.73;100.00;101631.59;5047015;28;20036;-80
2022/08/27 05:18:49;;;;;;;14.23;8.55;;;;;;;13.72;100.00;101632.56;5048018;28;20017;-79
2022/08/27 05:21:21;;;;;;;15.70;7.93;;;;;;;13.77;100.00;101633.06;5046872;28;20025;-79
2022/08/27 05:23:46;;;;;;;17.57;9.17;;;;;;;13.82;100.00;101637.16;5047647;28;20051;-79
2022/08/27 05:26:12;;;;;;;13.25;8.02;;;;;;;13.84;100.00;101629.94;5046568;28;20110;-79
2022/08/27 05:28:37;;;;;;;13.77;8.25;;;;;;;13.91;100.00;101631.16;5045896;28;20036;-79
2022/08/27 05:31:07;;;;;;;14.15;8.50;;;;;;;13.97;100.00;101633.34;5045744;28;20021;-79
2022/08/27 05:33:34;;;;;;;15.32;7.95;;;;;;;14.03;100.00;101638.19;5036314;28;20462;-79
2022/08/27 05:36:00;;;;;;;16.25;8.32;;;;;;;14.10;100.00;101632.31;5028114;28;20021;-79
2022/08/27 05:38:28;;;;;;;17.73;9.25;;;;;;;14.16;100.00;101641.59;5028089;28;20037;-79
2022/08/27 05:41:13;;;;;;;15.45;9.25;;;;;;;14.22;100.00;101646.41;5031953;28;20044;-79
2022/08/27 05:43:40;;;;;;;15.85;9.05;;;;;;;14.24;100.00;101644.50;5032498;28;20491;-79
2022/08/27 05:46:09;;;;;;;15.55;8.70;;;;;;;14.31;100.00;101645.69;5049014;28;20044;-80
2022/08/27 05:48:35;;;;;;;14.15;9.32;;;;;;;14.38;100.00;101646.91;5051906;28;20074;-79
2022/08/27 05:51:10;;;;;;;15.15;8.68;;;;;;;14.41;100.00;101644.06;5050643;28;20080;-79
2022/08/27 05:53:36;;;;;;;16.55;9.27;;;;;;;14.45;100.00;101638.56;5052951;28;20028;-80
2022/08/27 05:56:01;;;;;;;14.43;8.82;;;;;;;14.48;100.00;101638.31;5050663;28;20025;-80
2022/08/27 06:01:12;;;;;;;23.25;9.50;;;;;;;14.57;100.00;101642.88;5050992;28;20032;-79
2022/08/27 06:03:39;;;;;;;21.50;8.73;;;;;;;14.66;100.00;101647.44;5052949;28;20033;-80
2022/08/27 06:06:08;;;;;;;15.30;8.75;;;;;;;14.72;100.00;101652.28;5050931;28;20024;-77
2022/08/27 06:08:33;;;;;;;23.15;9.23;;;;;;;14.71;100.00;101648.78;5050143;28;20025;-77
2022/08/27 06:11:00;;;;;;;17.77;9.02;;;;;;;14.78;100.00;101657.06;5050320;28;20024;-77
2022/08/27 06:13:27;;;;;;;19.65;8.65;;;;;;;14.82;99.07;101658.56;5050494;28;20051;-77
2022/08/27 06:16:06;;;;;;;16.15;8.95;;;;;;;14.87;99.82;101656.38;5050568;28;20028;-76
2022/08/27 06:18:33;;;;;;;16.10;9.52;;;;;;;14.89;99.18;101657.09;5049351;28;20048;-76
2022/08/27 06:20:58;;;;;;;18.48;8.52;;;;;;;14.96;99.25;101666.25;5050271;28;20021;-77
2022/08/27 06:23:24;;;;;;;15.43;9.27;;;;;;;15.01;98.66;101664.06;5051358;28;20032;-77
2022/08/27 06:25:49;;;;;;;15.43;9.52;;;;;;;15.06;98.35;101655.75;5050838;28;20044;-77
2022/08/27 06:28:15;;;;;;;15.50;8.75;;;;;;;15.08;98.18;101653.81;5050254;28;20068;-77
2022/08/27 06:30:40;;;;;;;18.65;9.00;;;;;;;15.16;98.33;101661.16;5051072;28;20013;-77
2022/08/27 06:33:05;;;;;;;16.75;9.20;;;;;;;15.21;98.99;101661.63;5050538;28;20124;-77
2022/08/27 06:35:33;;;;;;;14.00;9.23;;;;;;;15.30;98.46;101669.69;5056046;28;20024;-77
2022/08/27 06:37:59;;;;;;;15.05;9.05;;;;;;;15.32;98.08;101661.63;5058460;28;20107;-77
2022/08/27 06:40:24;;;;;;;12.10;9.25;;;;;;;15.38;97.99;101658.47;5059634;28;20104;-80
2022/08/27 06:42:50;;;;;;;15.25;8.63;;;;;;;15.47;97.93;101665.66;5056780;28;20033;-79
2022/08/27 06:45:15;;;;;;;14.95;9.07;;;;;;;15.54;97.95;101661.53;5052563;28;20478;-76
2022/08/27 06:47:41;;;;;;;15.73;8.00;;;;;;;15.58;97.16;101657.69;5048987;28;20036;-76
2022/08/27 06:50:06;;;;;;;10.82;8.50;;;;;;;15.65;96.71;101658.06;5050645;28;20095;-79
2022/08/27 06:52:32;;;;;;;19.35;8.60;;;;;;;15.70;95.97;101660.34;5050760;28;20399;-79
2022/08/27 06:54:57;;;;;;;12.48;8.20;;;;;;;15.79;95.63;101660.41;5050442;28;20415;-80
2022/08/27 06:57:23;;;;;;;17.90;8.57;;;;;;;15.80;95.67;101658.59;5048666;28;20025;-81
2022/08/27 06:59:49;;;;;;;15.35;8.38;;;;;;;15.89;95.76;101671.09;5050178;28;20028;-80
2022/08/27 07:02:15;;;;;;;24.30;8.98;;;;;;;15.91;94.60;101658.53;5050200;28;20029;-80
2022/08/27 07:04:41;;;;;;;13.13;8.63;;;;;;;15.98;94.98;101654.38;5051307;28;20029;-80
2022/08/27 07:07:06;;;;;;;18.58;8.85;;;;;;;16.09;95.53;101651.69;5050172;28;20112;-80
2022/08/27 07:09:32;;;;;;;18.30;9.02;;;;;;;16.13;94.79;101658.44;5050435;28;20021;-80
2022/08/27 07:11:58;;;;;;;17.80;7.90;;;;;;;16.17;92.92;101649.22;5050690;28;20029;-79
2022/08/27 07:14:24;;;;;;;14.98;7.85;;;;;;;16.21;93.04;101658.63;5051346;28;20534;-80
2022/08/27 07:16:50;;;;;;;13.40;8.02;;;;;;;16.25;93.93;101662.69;5048231;28;20510;-79
2022/08/27 07:19:16;;;;;;;12.93;7.40;;;;;;;16.34;92.21;101663.72;5048354;28;20437;-78
2022/08/27 07:21:41;;;;;;;15.80;9.20;;;;;;;16.44;91.99;101663.81;5049270;28;20029;-79
2022/08/27 07:24:08;;;;;;;11.30;8.05;;;;;;;16.48;90.83;101657.25;5049701;28;20475;-80
2022/08/27 07:26:36;;;;;;;13.05;6.97;;;;;;;16.57;90.39;101661.75;5050442;28;20049;-80
2022/08/27 07:29:05;;;;;;;14.85;7.25;;;;;;;16.63;90.82;101661.22;5046583;28;20094;-79
2022/08/27 07:31:34;;;;;;;11.18;6.90;;;;;;;16.75;91.69;101664.66;5041426;28;20033;-79
2022/08/27 07:33:59;;;;;;;14.07;6.95;;;;;;;16.84;90.27;101667.38;5048143;28;20025;-78
2022/08/27 07:36:24;;;;;;;10.60;7.00;;;;;;;16.96;89.98;101667.28;5028062;28;20043;-80
2022/08/27 07:38:51;;;;;;;15.10;7.20;;;;;;;16.95;87.59;101660.28;5030089;28;20028;-80
2022/08/27 07:41:17;;;;;;;11.40;6.50;;;;;;;17.09;88.16;101662.56;5036025;28;20040;-79
2022/08/27 07:46:27;;;;;;;12.77;5.80;;;;;;;17.14;85.47;101666.47;5049622;28;20130;-79
2022/08/27 07:48:54;;;;;;;13.20;5.75;;;;;;;17.24;84.74;101671.84;5049438;28;20099;-80
2022/08/27 07:51:21;;;;;;;7.88;5.43;;;;;;;17.31;84.10;101672.97;5048527;28;20013;-79
2022/08/27 07:53:49;;;;;;;8.55;4.97;;;;;;;17.58;82.12;101674.13;5048677;28;20040;-79
2022/08/27 07:56:15;;;;;;;7.82;4.78;;;;;;;17.71;82.00;101680.06;5049065;28;20025;-79
2022/08/27 07:58:42;;;;;;;10.85;6.07;;;;;;;17.84;79.86;101680.63;5056265;28;20028;-79
2022/08/27 08:01:07;;;;;;;12.38;5.38;;;;;;;17.92;79.26;101680.75;5056725;28;20027;-79
2022/08/27 08:03:33;;;;;;;9.15;4.70;;;;;;;17.94;77.88;101684.13;5048469;28;20025;-79
2022/08/27 08:06:08;;;;;;;9.15;4.57;;;;;;;18.02;80.81;101678.13;5048827;28;20043;-79
2022/08/27 08:08:35;;;;;;;10.32;4.38;;;;;;;18.13;78.33;101677.97;5065804;28;20109;-79
2022/08/27 08:11:02;;;;;;;8.02;4.53;;;;;;;18.35;78.75;101679.44;5057346;28;20164;-79
2022/08/27 08:13:29;;;;;;;8.00;4.40;;;;;;;18.29;75.92;101680.88;5058727;28;20098;-79
2022/08/27 08:15:56;;;;;;;11.80;4.43;;;;;;;18.33;76.31;101679.59;5056295;28;20017;-79
2022/08/27 08:18:21;;;;;;;5.68;3.85;;;;;;;18.46;76.87;101681.97;5055220;28;20025;-80
2022/08/27 08:20:47;;;;;;;10.93;4.95;;;;;;;18.56;74.43;101676.59;5055053;28;20016;-80
2022/08/27 08:23:12;;;;;;;10.85;4.20;;;;;;;18.71;74.34;101681.34;5044997;28;20505;-79
2022/08/27 08:25:37;;;;;;;10.13;3.55;;;;;;;19.02;73.81;101671.25;5027378;28;20403;-80
2022/08/27 08:28:03;;;;;;;10.10;3.97;;;;;;;19.41;72.23;101673.69;5043509;28;20025;-80
2022/08/27 08:30:28;;;;;;;9.25;4.00;;;;;;;19.49;68.43;101675.59;5048518;28;20083;-80
2022/08/27 08:32:54;;;;;;;6.88;4.15;;;;;;;19.67;69.40;101681.84;5047973;28;20029;-79
2022/08/27 08:35:19;;;;;;;7.65;4.20;;;;;;;19.81;68.63;101686.66;5047707;28;20021;-79
2022/08/27 08:37:45;;;;;;;7.80;3.88;;;;;;;20.13;68.78;101690.59;5051653;28;20112;-81
2022/08/27 08:40:27;;;;;;;7.95;4.32;;;;;;;20.21;68.22;101679.97;5045859;28;20564;-83
2022/08/27 08:42:55;;;;;;;7.45;3.95;;;;;;;20.50;66.59;101677.03;5048276;28;20502;-82
2022/08/27 08:45:26;;;;;;;7.28;4.00;;;;;;;20.49;66.96;101684.22;5047110;28;20131;-83
2022/08/27 08:48:13;;;;;;;6.88;3.90;;;;;;;20.75;66.21;101677.97;5048328;28;20106;-82
2022/08/27 08:51:06;;;;;;;7.20;3.92;;;;;;;20.93;64.91;101678.75;5050330;28;20036;-82
2022/08/27 08:53:53;;;;;;;9.05;3.50;;;;;;;21.05;65.78;101681.97;5046816;28;20418;-82
2022/08/27 08:56:29;;;;;;;7.93;3.60;;;;;;;21.08;63.31;101677.13;5048861;28;20482;-82
2022/08/27 08:58:58;;;;;;;5.57;3.28;;;;;;;21.38;63.00;101673.09;5048301;28;20116;-81
2022/08/27 09:01:25;;;;;;;8.02;3.33;;;;;;;21.34;62.32;101678.94;5048041;28;20017;-82
2022/08/27 09:04:02;;;;;;;7.97;3.50;;;;;;;21.41;62.26;101683.47;5048475;28;20035;-83
2022/08/27 09:06:53;;;;;;;6.50;3.20;;;;;;;21.56;60.89;101678.28;5038557;28;20037;-84
2022/08/27 09:09:46;;;;;;;7.00;3.10;;;;;;;21.68;61.56;101682.34;5048612;28;20552;-88
2022/08/27 09:12:17;;;;;;;5.07;2.67;;;;;;;21.42;60.89;101678.94;5048824;28;20284;-87
2022/08/27 09:14:50;;;;;;;5.07;2.40;;;;;;;21.23;61.86;101678.25;5048289;28;20447;-88
2022/08/27 09:17:16;;;;;;;6.97;2.70;;;;;;;20.98;60.06;101688.97;5049116;28;20029;-87
2022/08/27 09:19:42;;;;;;;4.03;2.17;;;;;;;20.86;60.50;101686.59;5048416;28;20399;-85
2022/08/27 09:22:23;;;;;;;4.05;2.15;;;;;;;20.91;63.08;101691.47;5046960;28;20030;-85
2022/08/27 09:25:20;;;;;;;5.70;2.20;;;;;;;20.88;62.13;101691.78;5050949;28;20100;-84
2022/08/27 09:27:46;;;;;;;4.00;2.05;;;;;;;20.83;58.37;101688.75;5047627;28;20021;-82
2022/08/27 09:30:22;;;;;;;5.68;1.83;;;;;;;21.10;59.79;101679.66;5045650;28;20124;-86
2022/08/27 09:33:03;;;;;;;3.55;2.10;;;;;;;21.06;58.82;101686.31;5039886;28;20036;-83
2022/08/27 09:35:39;;;;;;;7.03;2.30;;;;;;;20.95;58.08;101672.25;5040038;28;20083;-80
2022/08/27 09:38:05;;;;;;;5.10;2.30;;;;;;;20.98;59.13;101680.94;5046085;28;20031;-81
2022/08/27 09:40:36;;;;;;;7.10;2.60;;;;;;;20.83;59.41;101683.41;5047958;28;20024;-81
2022/08/27 09:43:30;;;;;;;5.47;2.10;;;;;;;20.63;59.33;101691.63;5026466;28;20471;-81
2022/08/27 09:46:20;;;;;;;4.45;1.92;;;;;;;20.70;59.91;101691.00;5026778;28;20388;-81
2022/08/27 09:48:46;;;;;;;5.65;2.20;;;;;;;20.80;57.92;101689.03;5026968;28;20083;-81
2022/08/27 09:51:16;;;;;;;5.35;2.08;;;;;;;20.86;57.43;101689.25;5027132;28;20029;-81
2022/08/27 09:53:49;;;;;;;6.85;2.20;;;;;;;21.11;57.96;101687.50;5039845;28;20132;-80
2022/08/27 09:56:28;;;;;;;5.55;2.30;;;;;;;21.40;58.28;101691.66;5046285;28;20036;-82
2022/08/27 09:59:26;;;;;;;6.68;2.10;;;;;;;21.42;57.23;101695.00;5047592;28;20076;-82
2022/08/27 10:02:01;;;;;;;6.57;2.28;;;;;;;21.52;55.92;101691.19;5046508;28;20025;-85
2022/08/27 10:04:47;;;;;;;4.15;1.90;;;;;;;21.77;56.87;101694.75;5045981;28;20114;-82
2022/08/27 10:07:39;;;;;;;6.78;2.22;;;;;;;21.94;55.80;101690.22;5045968;28;20024;-81
2022/08/27 10:10:19;;;;;;;5.00;2.45;;;;;;;22.15;54.97;101692.44;5037306;28;20130;-85
2022/08/27 10:12:57;;;;;;;5.70;3.45;;;;;;;22.27;54.72;101683.06;5047535;28;20035;-81
2022/08/27 10:15:28;;;;;;;5.20;2.78;;;;;;;22.04;54.02;101685.59;5047396;28;20744;-82
2022/08/27 10:18:06;;;;;;;5.00;2.38;;;;;;;21.77;55.89;101681.34;5030194;28;20024;-81
2022/08/27 10:20:54;;;;;;;5.47;2.50;;;;;;;21.78;56.45;101675.00;5048808;28;20017;-78
2022/08/27 10:23:43;;;;;;;4.80;2.15;;;;;;;21.76;56.45;101685.03;5048180;28;20033;-78
2022/08/27 10:26:18;;;;;;;4.45;2.28;;;;;;;21.51;55.76;101684.16;5081557;28;20025;-78
2022/08/27 10:28:55;;;;;;;4.72;2.10;;;;;;;21.52;55.84;101674.28;5052068;28;20021;-78
2022/08/27 10:31:31;;;;;;;7.90;2.35;;;;;;;21.65;57.47;101674.66;5051973;28;20075;-79
2022/08/27 10:34:10;;;;;;;9.70;2.30;;;;;;;21.87;56.39;101675.81;5051481;28;20040;-84
2022/08/27 10:37:07;;;;;;;4.60;2.35;;;;;;;22.12;56.53;101663.31;5052057;28;20410;-85
2022/08/27 10:40:10;;;;;;;8.65;2.35;;;;;;;22.12;56.47;101661.47;5041731;28;20063;-80
2022/08/27 10:42:44;;;;;;;5.57;2.10;;;;;;;21.89;55.35;101666.63;5027652;28;20068;-86
2022/08/27 10:45:16;;;;;;;4.65;2.35;;;;;;;21.76;54.62;101671.66;5050585;28;20145;-87
2022/08/27 10:47:48;;;;;;;4.55;1.95;;;;;;;21.76;56.06;101666.28;5049805;28;20039;-81
2022/08/27 10:50:36;;;;;;;5.35;2.10;;;;;;;21.75;56.27;101664.63;5028783;28;20034;-81
2022/08/27 10:53:29;;;;;;;4.43;2.20;;;;;;;21.80;55.48;101667.63;5043052;28;20024;-80
2022/08/27 10:56:05;;;;;;;;;;;;;;;21.81;55.60;101674.66;5050942;28;20064;-85
2022/08/27 10:58:37;;;;;;;7.43;2.20;;;;;;;21.34;56.44;101661.03;5050891;28;19981;-86
2022/08/27 11:01:26;;;;;;;8.45;2.50;;;;;;;21.21;56.14;101672.19;5048027;28;20016;-86
2022/08/27 11:03:59;;;;;;;5.47;2.40;;;;;;;21.01;56.58;101676.09;5049186;28;20020;-86
2022/08/27 11:06:45;;;;;;;6.82;2.42;;;;;;;20.94;57.17;101672.41;5049327;28;20025;-85
2022/08/27 11:09:39;;;;;;;5.15;2.38;;;;;;;20.80;57.15;101668.47;5049890;28;20036;-81
2022/08/27 11:12:08;;;;;;;3.20;1.98;;;;;;;20.78;56.63;101670.47;5049856;28;20028;-80
2022/08/27 11:14:40;;;;;;;5.95;2.22;;;;;;;20.79;57.92;101672.16;5048408;28;20382;-79
2022/08/27 11:17:28;;;;;;;5.10;1.80;;;;;;;20.85;57.76;101665.34;5046163;28;20071;-79
2022/08/27 11:20:15;;;;;;;6.60;2.33;;;;;;;21.03;58.03;101663.41;5030429;28;20022;-85
2022/08/27 11:23:03;;;;;;;8.93;2.03;;;;;;;21.10;57.40;101664.44;5044172;28;20036;-85
2022/08/27 11:25:49;;;;;;;3.90;2.00;;;;;;;21.18;57.73;101656.41;5050444;28;20031;-85
2022/08/27 11:28:17;;;;;;;5.72;2.10;;;;;;;21.30;56.69;101653.50;5049122;28;20029;-86
2022/08/27 11:30:57;;;;;;;3.47;1.90;;;;;;;21.43;55.85;101661.88;5057127;28;20082;-85
2022/08/27 11:33:41;;;;;;;5.65;2.00;;;;;;;21.65;56.38;101657.75;5052555;28;20078;-86
2022/08/27 11:36:28;;;;;;;6.47;1.88;;;;;;;21.69;56.68;101649.22;5057255;28;20029;-85
2022/08/27 11:39:03;;;;;;;6.57;1.95;;;;;;;21.75;56.84;101653.91;5061552;28;20477;-85